Time;durP1;ratioP1;P1;durP2;ratioP2;P2;SDS_P1;SDS_P2;PMS_P1;PMS_P2;Temp;Humidity;BMP_temperature;BMP_pressure;BME280_temperature;BME280_humidity;BME280_pressure;Samples;Min_cycle;Max_cycle;Signal;HPM_P1;HPM_P2
2023/07/08 00:00:54;;;;;;;16.52;7.50;;;;;;;15.64;100.00;100909.50;5122656;28;20034;-79
2023/07/08 00:03:24;;;;;;;14.60;7.13;;;;;;;15.60;100.00;100903.97;5121832;28;20043;-79
2023/07/08 00:05:54;;;;;;;10.25;7.22;;;;;;;15.56;100.00;100912.03;5113051;28;20039;-76
2023/07/08 00:08:20;;;;;;;14.30;6.85;;;;;;;15.51;100.00;100903.38;5112449;28;20461;-78
2023/07/08 00:10:47;;;;;;;12.38;7.30;;;;;;;15.48;100.00;100910.91;5078163;28;20044;-77
2023/07/08 00:13:13;;;;;;;10.82;7.70;;;;;;;15.44;100.00;100913.25;5113706;28;20102;-77
2023/07/08 00:15:40;;;;;;;13.95;7.43;;;;;;;15.41;100.00;100914.28;5114425;28;20059;-78
2023/07/08 00:18:12;;;;;;;10.23;7.50;;;;;;;15.38;100.00;100908.75;5116097;28;20055;-79
2023/07/08 00:20:44;;;;;;;12.57;7.55;;;;;;;15.36;100.00;100911.38;5116489;28;20027;-79
2023/07/08 00:23:11;;;;;;;10.77;6.80;;;;;;;15.28;100.00;100906.06;5117215;28;20023;-79
2023/07/08 00:25:38;;;;;;;9.55;6.72;;;;;;;15.26;100.00;100908.69;5115567;28;20035;-79
2023/07/08 00:28:14;;;;;;;13.77;7.00;;;;;;;15.23;100.00;100915.44;5117422;28;20114;-79
2023/07/08 00:31:00;;;;;;;11.10;6.60;;;;;;;15.18;100.00;100913.31;5117194;27;20051;-79
2023/07/08 00:33:25;;;;;;;10.40;7.32;;;;;;;15.09;100.00;100896.22;5116822;28;20460;-79
2023/07/08 00:36:12;;;;;;;11.80;6.40;;;;;;;15.07;100.00;100903.78;5117171;28;20030;-79
2023/07/08 00:38:38;;;;;;;10.65;6.97;;;;;;;14.98;100.00;100909.72;5117126;28;20103;-80
2023/07/08 00:41:10;;;;;;;11.02;8.02;;;;;;;14.87;100.00;100910.41;5116909;28;20047;-81
2023/07/08 00:43:45;;;;;;;12.68;7.57;;;;;;;14.74;100.00;100910.78;5115713;28;20028;-80
2023/07/08 00:46:29;;;;;;;10.77;7.20;;;;;;;14.72;100.00;100913.41;5115530;28;20028;-80
2023/07/08 00:49:07;;;;;;;12.77;7.47;;;;;;;14.73;100.00;100908.41;5117047;28;20114;-79
2023/07/08 00:51:37;;;;;;;11.20;7.22;;;;;;;14.69;100.00;100905.78;5116598;28;20059;-81
2023/07/08 00:54:03;;;;;;;11.43;7.65;;;;;;;14.67;100.00;100910.47;5099011;28;20065;-80
2023/07/08 00:56:43;;;;;;;10.82;7.03;;;;;;;14.62;100.00;100914.88;5116349;28;20039;-80
2023/07/08 00:59:28;;;;;;;14.88;7.43;;;;;;;14.54;100.00;100912.88;5116374;27;20107;-79
2023/07/08 01:01:56;;;;;;;12.95;7.85;;;;;;;14.48;100.00;100912.06;5114939;28;20119;-79
2023/07/08 01:04:31;;;;;;;9.98;6.88;;;;;;;14.38;100.00;100909.31;5081261;28;20031;-79
2023/07/08 01:06:59;;;;;;;11.85;8.35;;;;;;;14.35;100.00;100906.66;5098312;28;20027;-78
2023/07/08 01:09:32;;;;;;;10.30;8.00;;;;;;;14.31;100.00;100908.97;5102410;28;20048;-79
2023/07/08 01:12:16;;;;;;;16.38;8.65;;;;;;;14.24;100.00;100904.44;5118812;28;20024;-79
2023/07/08 01:14:42;;;;;;;13.50;8.25;;;;;;;14.12;100.00;100902.75;5116490;28;20031;-79
2023/07/08 01:17:14;;;;;;;10.82;7.90;;;;;;;14.09;100.00;100900.06;5115418;28;20023;-79
2023/07/08 01:19:40;;;;;;;15.13;9.02;;;;;;;14.13;100.00;100915.03;5114849;28;20054;-79
2023/07/08 01:22:08;;;;;;;11.70;8.10;;;;;;;14.13;100.00;100912.16;5113585;28;20024;-80
2023/07/08 01:24:45;;;;;;;13.80;8.60;;;;;;;14.08;100.00;100913.66;5114667;27;20084;-80
2023/07/08 01:27:13;;;;;;;11.77;8.73;;;;;;;14.00;100.00;100915.38;5079363;28;20027;-79
2023/07/08 01:29:39;;;;;;;13.95;8.45;;;;;;;13.97;100.00;100911.44;5096819;28;20028;-80
2023/07/08 01:32:05;;;;;;;14.98;8.93;;;;;;;13.97;100.00;100904.88;5114994;28;20068;-79
2023/07/08 01:34:33;;;;;;;13.18;8.88;;;;;;;13.92;100.00;100903.53;5114921;28;20059;-80
2023/07/08 01:37:15;;;;;;;13.52;8.75;;;;;;;13.87;100.00;100906.31;5080713;28;20498;-81
2023/07/08 01:39:41;;;;;;;17.88;9.02;;;;;;;13.78;100.00;100907.25;5114458;28;20028;-79
2023/07/08 01:42:07;;;;;;;16.33;9.00;;;;;;;13.75;100.00;100905.34;5115963;28;20028;-79
2023/07/08 01:44:36;;;;;;;14.75;8.73;;;;;;;13.71;100.00;100910.53;5114283;28;20484;-80
2023/07/08 01:47:14;;;;;;;13.98;9.13;;;;;;;13.65;100.00;100903.91;5114419;28;20503;-80
2023/07/08 01:49:55;;;;;;;14.13;8.40;;;;;;;13.70;100.00;100908.16;5115466;28;20035;-79
2023/07/08 01:52:22;;;;;;;12.40;9.13;;;;;;;13.67;100.00;100909.16;5115515;28;20036;-80
2023/07/08 01:54:55;;;;;;;15.93;9.75;;;;;;;13.61;100.00;100914.03;5114221;28;20027;-80
2023/07/08 01:57:20;;;;;;;13.25;9.18;;;;;;;13.54;100.00;100910.28;5115259;28;20019;-80
2023/07/08 01:59:47;;;;;;;19.60;11.95;;;;;;;13.48;100.00;100906.50;5114260;28;20171;-80
2023/07/08 02:02:14;;;;;;;12.30;9.40;;;;;;;13.29;100.00;100885.06;5114289;28;20380;-80
2023/07/08 02:04:42;;;;;;;14.38;9.07;;;;;;;13.47;100.00;100916.41;5114080;28;20080;-80
2023/07/08 02:07:07;;;;;;;15.70;9.43;;;;;;;13.50;100.00;100914.59;5115410;28;20069;-80
2023/07/08 02:09:32;;;;;;;14.68;8.63;;;;;;;13.52;100.00;100907.13;5114178;28;20040;-80
2023/07/08 02:11:58;;;;;;;13.15;8.52;;;;;;;13.55;100.00;100908.19;5114079;28;20023;-81
2023/07/08 02:14:23;;;;;;;17.58;9.40;;;;;;;13.57;100.00;100905.63;5114941;28;20529;-81
2023/07/08 02:16:50;;;;;;;16.45;9.45;;;;;;;13.61;100.00;100899.66;5113675;28;20027;-80
2023/07/08 02:19:16;;;;;;;16.70;9.35;;;;;;;13.60;100.00;100904.63;5114678;28;20040;-80
2023/07/08 02:21:42;;;;;;;15.32;9.63;;;;;;;13.62;100.00;100907.00;5114906;28;20051;-80
2023/07/08 02:24:09;;;;;;;12.43;8.85;;;;;;;13.57;100.00;100905.63;5096626;28;20030;-80
2023/07/08 02:26:36;;;;;;;13.30;9.38;;;;;;;13.54;100.00;100907.41;5114985;28;20023;-80
2023/07/08 02:29:03;;;;;;;15.43;9.20;;;;;;;13.53;100.00;100907.91;5113801;28;20074;-80
2023/07/08 02:31:29;;;;;;;14.63;9.10;;;;;;;13.47;100.00;100904.13;5114757;28;20027;-80
2023/07/08 02:34:03;;;;;;;12.63;9.80;;;;;;;13.51;100.00;100908.41;5112899;28;20043;-80
2023/07/08 02:36:29;;;;;;;11.95;9.40;;;;;;;13.48;100.00;100908.59;5114586;28;20027;-81
2023/07/08 02:38:54;;;;;;;12.25;9.60;;;;;;;13.46;100.00;100911.94;5112727;28;20111;-81
2023/07/08 02:41:20;;;;;;;14.75;9.20;;;;;;;13.36;100.00;100907.63;5114721;28;20092;-80
2023/07/08 02:43:46;;;;;;;12.43;8.68;;;;;;;13.37;100.00;100906.34;5114500;28;20417;-80
2023/07/08 02:46:13;;;;;;;12.68;8.70;;;;;;;13.33;100.00;100902.88;5111075;28;20030;-79
2023/07/08 02:48:38;;;;;;;13.20;9.68;;;;;;;13.33;100.00;100902.09;5114581;28;20020;-80
2023/07/08 02:51:05;;;;;;;12.07;8.77;;;;;;;13.34;100.00;100904.44;5114291;28;20483;-79
2023/07/08 02:53:35;;;;;;;18.70;9.10;;;;;;;13.33;100.00;100902.09;5096273;28;20101;-81
2023/07/08 02:56:01;;;;;;;11.68;8.13;;;;;;;13.31;100.00;100896.84;5113340;28;20023;-80
2023/07/08 02:58:29;;;;;;;14.05;9.23;;;;;;;13.30;100.00;100903.84;5112973;28;20446;-80
2023/07/08 03:01:00;;;;;;;12.10;9.10;;;;;;;13.26;100.00;100906.16;5113965;28;20032;-81
2023/07/08 03:03:28;;;;;;;13.63;8.30;;;;;;;13.26;100.00;100900.41;5110366;28;20055;-82
2023/07/08 03:05:58;;;;;;;30.92;9.55;;;;;;;13.30;100.00;100898.13;5112731;28;20039;-80
2023/07/08 03:08:26;;;;;;;22.50;8.80;;;;;;;13.34;100.00;100906.53;5112786;28;20034;-80
2023/07/08 03:11:04;;;;;;;15.98;8.77;;;;;;;13.39;100.00;100906.59;5112500;28;20052;-80
2023/07/08 03:13:32;;;;;;;14.27;8.90;;;;;;;13.39;100.00;100902.97;5112694;28;20076;-80
2023/07/08 03:16:05;;;;;;;16.77;8.85;;;;;;;13.46;100.00;100903.34;5095846;28;20034;-80
2023/07/08 03:18:38;;;;;;;12.88;7.63;;;;;;;13.49;100.00;100905.19;5112951;28;20533;-80
2023/07/08 03:21:18;;;;;;;15.50;8.57;;;;;;;13.54;100.00;100900.88;5112691;28;20060;-80
2023/07/08 03:23:49;;;;;;;12.27;8.82;;;;;;;13.54;100.00;100907.41;5113925;28;20031;-81
2023/07/08 03:26:16;;;;;;;11.15;8.27;;;;;;;13.57;100.00;100907.69;5112912;28;20076;-80
2023/07/08 03:28:43;;;;;;;11.73;8.90;;;;;;;13.60;100.00;100909.56;5078913;28;20027;-79
2023/07/08 03:31:09;;;;;;;11.93;8.60;;;;;;;13.60;100.00;100921.03;5094339;28;20092;-80
2023/07/08 03:33:36;;;;;;;13.88;9.18;;;;;;;13.58;100.00;100915.03;5112867;28;20032;-80
2023/07/08 03:36:05;;;;;;;11.65;8.57;;;;;;;13.56;100.00;100909.78;5112465;28;20415;-80
2023/07/08 03:38:31;;;;;;;10.00;8.10;;;;;;;13.57;100.00;100910.56;5112602;28;20031;-81
2023/07/08 03:40:56;;;;;;;13.68;8.85;;;;;;;13.58;100.00;100912.16;5113395;28;20031;-81
2023/07/08 03:43:22;;;;;;;12.73;8.27;;;;;;;13.59;100.00;100916.63;5113518;28;20031;-80
2023/07/08 03:45:49;;;;;;;15.02;10.18;;;;;;;13.58;100.00;100921.56;5112818;28;20042;-80
2023/07/08 03:48:15;;;;;;;11.10;7.88;;;;;;;13.61;100.00;100929.19;5129821;28;20049;-80
2023/07/08 03:50:41;;;;;;;12.52;9.00;;;;;;;13.53;100.00;100899.31;5116620;28;20038;-80
2023/07/08 03:53:08;;;;;;;16.58;9.82;;;;;;;13.64;100.00;100910.16;5116180;28;20122;-81
2023/07/08 03:55:33;;;;;;;11.55;8.63;;;;;;;13.64;100.00;100921.66;5099582;28;20077;-78
2023/07/08 03:57:59;;;;;;;13.73;8.93;;;;;;;13.61;100.00;100917.69;5117589;28;20027;-80
2023/07/08 04:00:26;;;;;;;20.88;9.68;;;;;;;13.61;100.00;100922.63;5117751;28;20376;-81
2023/07/08 04:02:53;;;;;;;17.88;10.00;;;;;;;13.61;100.00;100919.75;5115890;28;20043;-80
2023/07/08 04:05:22;;;;;;;13.65;9.90;;;;;;;13.66;100.00;100925.59;5133430;27;20031;-80
2023/07/08 04:07:48;;;;;;;15.23;8.75;;;;;;;13.71;100.00;100919.16;5099139;28;20395;-80
2023/07/08 04:10:14;;;;;;;12.82;9.55;;;;;;;13.88;100.00;100923.06;5116391;28;20130;-79
2023/07/08 04:12:40;;;;;;;14.85;8.90;;;;;;;14.03;100.00;100919.34;5101097;28;20032;-81
2023/07/08 04:15:12;;;;;;;17.60;9.13;;;;;;;14.08;100.00;100907.13;5119224;28;20464;-80
2023/07/08 04:17:49;;;;;;;20.63;9.43;;;;;;;14.27;100.00;100917.03;5131258;28;20036;-79
2023/07/08 04:20:18;;;;;;;16.17;9.50;;;;;;;14.20;100.00;100901.00;5140368;28;20027;-81
2023/07/08 04:22:56;;;;;;;13.32;10.65;;;;;;;14.42;100.00;100912.78;5140342;28;20028;-81
2023/07/08 04:25:24;;;;;;;12.52;8.40;;;;;;;14.51;100.00;100916.78;5135562;28;20036;-80
2023/07/08 04:27:51;;;;;;;13.20;8.82;;;;;;;14.55;100.00;100908.72;5118026;28;20034;-81
2023/07/08 04:30:25;;;;;;;10.80;8.52;;;;;;;14.67;100.00;100911.25;5117487;28;20027;-80
2023/07/08 04:32:52;;;;;;;11.23;8.57;;;;;;;14.72;100.00;100910.53;5116046;28;20352;-79
2023/07/08 04:35:18;;;;;;;10.75;9.13;;;;;;;14.75;100.00;100911.59;5115906;28;20028;-80
2023/07/08 04:37:47;;;;;;;14.65;8.55;;;;;;;14.83;100.00;100909.81;5116148;28;20468;-80
2023/07/08 04:40:30;;;;;;;12.98;8.48;;;;;;;14.90;100.00;100900.75;5082681;28;20035;-80
2023/07/08 04:42:55;;;;;;;11.70;8.05;;;;;;;14.94;100.00;100906.28;5116131;28;20028;-81
2023/07/08 04:45:22;;;;;;;13.55;8.88;;;;;;;14.98;100.00;100899.00;5115523;28;20031;-81
2023/07/08 04:47:51;;;;;;;18.85;8.75;;;;;;;15.02;100.00;100907.41;5116908;28;20380;-80
2023/07/08 04:50:17;;;;;;;11.88;8.05;;;;;;;14.99;100.00;100906.31;5115948;27;20118;-80
2023/07/08 04:52:45;;;;;;;14.20;9.73;;;;;;;15.00;100.00;100912.88;5115715;28;20048;-81
2023/07/08 04:55:26;;;;;;;12.82;8.40;;;;;;;15.06;100.00;100913.72;5116262;27;20031;-79
2023/07/08 04:57:51;;;;;;;10.73;9.03;;;;;;;15.11;100.00;100910.91;5116894;28;20072;-80
2023/07/08 05:00:22;;;;;;;15.23;8.63;;;;;;;15.17;100.00;100903.09;5115227;28;20031;-80
2023/07/08 05:02:49;;;;;;;15.47;8.60;;;;;;;15.23;100.00;100903.13;5114752;28;20110;-81
2023/07/08 05:05:15;;;;;;;12.57;8.07;;;;;;;15.27;100.00;100904.47;5116604;28;20031;-80
2023/07/08 05:07:40;;;;;;;12.23;8.07;;;;;;;15.33;100.00;100909.50;5115182;28;20101;-80
2023/07/08 05:10:07;;;;;;;14.00;8.13;;;;;;;15.41;100.00;100911.41;5116142;28;20480;-81
2023/07/08 05:12:35;;;;;;;17.45;7.75;;;;;;;15.57;100.00;100912.81;5116287;28;20126;-80
2023/07/08 05:15:06;;;;;;;11.05;7.57;;;;;;;15.76;100.00;100914.00;5116115;28;20031;-80
2023/07/08 05:17:34;;;;;;;12.27;7.53;;;;;;;15.92;100.00;100915.41;5115120;28;20031;-79
2023/07/08 05:20:01;;;;;;;14.18;7.38;;;;;;;16.09;100.00;100922.09;5116203;28;20094;-80
2023/07/08 05:22:27;;;;;;;10.57;7.82;;;;;;;16.24;100.00;100910.34;5114897;28;20027;-81
2023/07/08 05:24:56;;;;;;;10.40;6.95;;;;;;;16.35;100.00;100916.16;5116226;28;20050;-80
2023/07/08 05:27:26;;;;;;;14.82;7.25;;;;;;;16.47;100.00;100909.13;5115853;28;20023;-80
2023/07/08 05:29:53;;;;;;;12.57;7.72;;;;;;;16.58;100.00;100912.06;5114530;28;20024;-80
2023/07/08 05:32:19;;;;;;;12.15;7.45;;;;;;;16.65;100.00;100905.78;5115292;28;20036;-80
2023/07/08 05:34:44;;;;;;;12.00;7.15;;;;;;;16.74;100.00;100899.00;5097627;28;20034;-80
2023/07/08 05:37:13;;;;;;;13.23;6.78;;;;;;;16.91;100.00;100900.59;5114430;28;20095;-79
2023/07/08 05:39:40;;;;;;;12.63;6.60;;;;;;;17.06;100.00;100899.53;5097809;28;20042;-79
2023/07/08 05:42:06;;;;;;;18.38;7.57;;;;;;;17.16;100.00;100897.97;5115839;28;20019;-80
2023/07/08 05:44:34;;;;;;;24.27;7.00;;;;;;;17.25;100.00;100909.28;5115154;28;20099;-80
2023/07/08 05:47:02;;;;;;;15.15;6.38;;;;;;;17.29;100.00;100899.03;5115781;28;20023;-81
2023/07/08 05:49:31;;;;;;;11.18;6.32;;;;;;;17.37;100.00;100910.84;5097066;28;20023;-79
2023/07/08 05:51:58;;;;;;;6.90;5.90;;;;;;;17.49;100.00;100900.88;5115031;28;20076;-81
2023/07/08 05:54:23;;;;;;;12.82;6.10;;;;;;;17.64;100.00;100903.47;5115336;28;20545;-79
2023/07/08 05:56:50;;;;;;;10.75;5.35;;;;;;;17.85;100.00;100904.75;5113667;28;20015;-79
2023/07/08 05:59:16;;;;;;;11.23;5.57;;;;;;;18.45;100.00;100911.69;5113732;28;20061;-80
2023/07/08 06:01:41;;;;;;;13.32;4.50;;;;;;;19.85;100.00;100912.22;5113684;28;20020;-80
2023/07/08 06:04:08;;;;;;;6.88;4.75;;;;;;;21.72;100.00;100905.59;5114793;28;20015;-79
2023/07/08 06:06:35;;;;;;;9.07;5.00;;;;;;;23.51;100.00;100879.88;5103709;28;20029;-79
2023/07/08 06:09:01;;;;;;;10.07;4.13;;;;;;;25.34;100.00;100896.25;5114517;28;20036;-78
2023/07/08 06:11:28;;;;;;;8.70;4.25;;;;;;;27.07;92.94;100897.28;5115164;28;20020;-77
2023/07/08 06:13:54;;;;;;;5.10;3.97;;;;;;;28.56;78.80;100908.94;5114745;28;20031;-77
2023/07/08 06:16:20;;;;;;;8.00;3.85;;;;;;;29.88;68.73;100913.91;5114012;28;20036;-77
2023/07/08 06:18:46;;;;;;;6.63;3.92;;;;;;;31.21;58.17;100914.63;5114822;28;20460;-77
2023/07/08 06:21:12;;;;;;;8.30;3.83;;;;;;;32.25;44.41;100917.75;5115038;28;20015;-77
2023/07/08 06:23:39;;;;;;;9.18;3.92;;;;;;;33.45;48.33;100911.81;5114717;28;20020;-77
2023/07/08 06:26:05;;;;;;;8.00;4.20;;;;;;;34.56;42.99;100915.09;5115262;28;20033;-77
2023/07/08 06:28:30;;;;;;;7.22;3.60;;;;;;;35.43;38.97;100921.03;5114560;28;20039;-76
2023/07/08 06:30:57;;;;;;;5.82;3.65;;;;;;;35.72;35.82;100923.41;5113756;28;20040;-76
2023/07/08 06:33:29;;;;;;;6.05;3.67;;;;;;;36.48;37.03;100916.38;5112643;28;20122;-77
2023/07/08 06:35:55;;;;;;;4.40;3.50;;;;;;;36.63;32.37;100909.72;5114749;28;20023;-76
2023/07/08 06:38:20;;;;;;;5.00;3.28;;;;;;;36.80;31.36;100909.88;5113945;28;20053;-76
2023/07/08 06:40:46;;;;;;;5.78;2.90;;;;;;;37.32;34.40;100913.19;5113051;27;20035;-77
2023/07/08 06:43:11;;;;;;;6.60;3.10;;;;;;;38.19;31.22;100914.38;5113242;28;20492;-75
2023/07/08 06:45:37;;;;;;;4.43;2.83;;;;;;;38.82;29.91;100909.72;5113175;28;20076;-76
2023/07/08 06:48:02;;;;;;;5.07;2.78;;;;;;;38.59;29.31;100904.22;5109123;28;20054;-76
2023/07/08 06:50:28;;;;;;;6.70;3.10;;;;;;;39.32;27.84;100914.06;5112907;28;20428;-77
2023/07/08 06:52:56;;;;;;;3.40;3.10;;;;;;;39.80;26.75;100909.25;5112233;28;20460;-76
2023/07/08 06:55:23;;;;;;;8.23;2.65;;;;;;;40.41;27.30;100905.56;5113991;28;20023;-76
2023/07/08 06:57:50;;;;;;;10.05;3.10;;;;;;;41.26;26.67;100907.75;5095231;28;20027;-76
2023/07/08 07:00:18;;;;;;;6.57;2.83;;;;;;;41.84;25.17;100909.59;5114287;28;20031;-76
2023/07/08 07:02:43;;;;;;;5.93;2.72;;;;;;;42.12;24.99;100896.88;5114338;28;20103;-77
2023/07/08 07:05:10;;;;;;;4.28;2.95;;;;;;;42.60;24.29;100900.50;5114119;28;20446;-75
2023/07/08 07:07:37;;;;;;;4.00;2.65;;;;;;;42.80;24.03;100894.25;5103702;28;20051;-77
2023/07/08 07:10:03;;;;;;;6.38;3.17;;;;;;;43.17;22.69;100902.72;5113808;28;20047;-76
2023/07/08 07:12:28;;;;;;;5.60;3.33;;;;;;;43.65;22.59;100902.31;5113750;28;20451;-76
2023/07/08 07:14:55;;;;;;;6.80;2.80;;;;;;;43.88;21.11;100892.34;5113582;28;20114;-76
2023/07/08 07:17:26;;;;;;;2.97;2.25;;;;;;;43.85;17.86;100894.53;5113963;28;20058;-76
2023/07/08 07:19:56;;;;;;;5.28;2.38;;;;;;;43.90;19.99;100887.09;5114146;28;20115;-76
2023/07/08 07:22:23;;;;;;;3.95;2.10;;;;;;;44.36;18.74;100904.59;5114188;28;20437;-76
2023/07/08 07:24:49;;;;;;;3.70;3.00;;;;;;;43.54;19.34;100886.31;5113732;28;20028;-77
2023/07/08 07:27:15;;;;;;;3.65;1.92;;;;;;;43.97;18.73;100888.75;5113779;28;20084;-75
2023/07/08 07:29:43;;;;;;;3.55;2.25;;;;;;;44.37;18.01;100885.03;5112672;28;20462;-76
2023/07/08 07:32:10;;;;;;;3.33;2.10;;;;;;;44.34;17.49;100890.25;5095605;28;20426;-77
2023/07/08 07:34:38;;;;;;;4.85;1.95;;;;;;;44.43;17.73;100885.13;5113596;28;20027;-76
2023/07/08 07:37:14;;;;;;;4.97;2.00;;;;;;;44.85;17.65;100896.44;5112424;28;20092;-76
2023/07/08 07:39:59;;;;;;;6.03;2.22;;;;;;;44.65;17.58;100891.59;5113893;28;20024;-76
2023/07/08 07:42:46;;;;;;;4.55;2.13;;;;;;;44.95;17.25;100885.34;5094917;28;20064;-76
2023/07/08 07:45:32;;;;;;;3.95;2.00;;;;;;;45.03;15.54;100876.41;5113300;28;20066;-76
2023/07/08 07:47:57;;;;;;;4.22;2.20;;;;;;;45.09;17.19;100873.47;5112422;28;20418;-77
2023/07/08 07:50:23;;;;;;;3.92;2.00;;;;;;;45.01;16.69;100878.63;5112913;28;20028;-78
2023/07/08 07:52:50;;;;;;;3.30;1.85;;;;;;;44.87;15.72;100881.41;5115010;27;20535;-76
2023/07/08 07:55:19;;;;;;;2.95;2.08;;;;;;;44.90;16.02;100886.00;5113332;28;20364;-76
2023/07/08 07:57:46;;;;;;;3.08;2.13;;;;;;;45.04;16.89;100877.16;5111767;28;20051;-76
2023/07/08 08:00:13;;;;;;;2.45;1.88;;;;;;;44.55;16.13;100873.31;5113737;28;20030;-75
2023/07/08 08:02:41;;;;;;;2.72;1.98;;;;;;;44.40;15.61;100872.28;5113340;28;20035;-75
2023/07/08 08:05:08;;;;;;;3.85;2.30;;;;;;;44.25;16.28;100870.47;5113905;28;20031;-75
2023/07/08 08:07:34;;;;;;;4.00;2.30;;;;;;;44.51;16.91;100867.19;5111972;28;20035;-75
2023/07/08 08:09:59;;;;;;;4.90;2.33;;;;;;;44.74;15.74;100869.13;5111815;28;20112;-74
2023/07/08 08:12:26;;;;;;;3.60;2.03;;;;;;;44.34;15.04;100871.38;5113152;28;20176;-74
2023/07/08 08:14:52;;;;;;;3.17;2.00;;;;;;;43.97;16.10;100872.94;5113199;28;20031;-76
2023/07/08 08:17:18;;;;;;;2.75;2.08;;;;;;;43.67;15.49;100870.03;5113449;28;20031;-76
2023/07/08 08:19:51;;;;;;;2.67;1.92;;;;;;;43.26;16.92;100868.31;5113509;28;20141;-75
2023/07/08 08:22:21;;;;;;;4.40;1.92;;;;;;;43.42;16.15;100871.72;5113559;28;20016;-76
2023/07/08 08:24:46;;;;;;;5.18;2.20;;;;;;;43.64;16.65;100864.69;5113405;28;20016;-76
2023/07/08 08:27:11;;;;;;;4.88;2.25;;;;;;;44.14;16.63;100868.72;5113505;28;20375;-76
2023/07/08 08:29:37;;;;;;;4.87;1.70;;;;;;;44.31;15.82;100866.81;5111715;28;20035;-75
2023/07/08 08:32:03;;;;;;;2.45;1.95;;;;;;;44.45;15.55;100869.31;5111857;28;20803;-75
2023/07/08 08:34:28;;;;;;;2.95;1.88;;;;;;;44.27;14.98;100857.72;5113240;28;20046;-75
2023/07/08 08:36:56;;;;;;;5.83;2.20;;;;;;;43.89;14.46;100861.44;5113480;28;20047;-76
2023/07/08 08:39:22;;;;;;;3.13;1.73;;;;;;;44.03;15.15;100833.88;5117008;28;20356;-73
2023/07/08 08:41:57;;;;;;;4.70;1.77;;;;;;;44.29;14.51;100863.75;5117709;28;20062;-76
2023/07/08 08:44:35;;;;;;;3.33;1.83;;;;;;;44.26;14.29;100862.19;5116189;28;20076;-74
2023/07/08 08:47:30;;;;;;;4.70;2.10;;;;;;;44.16;14.69;100859.00;5116278;28;20077;-75
2023/07/08 08:50:29;;;;;;;3.22;2.08;;;;;;;43.56;15.74;100868.25;5115748;27;20031;-74
2023/07/08 08:52:56;;;;;;;2.90;1.90;;;;;;;43.58;14.45;100856.28;5115210;28;20020;-73
2023/07/08 08:55:26;;;;;;;2.75;1.98;;;;;;;43.48;15.15;100844.78;5115380;28;20038;-75
2023/07/08 08:58:04;;;;;;;;;;;;;;;43.48;14.88;100847.03;5099038;28;20050;-79
2023/07/08 09:00:45;;;;;;;5.07;1.98;;;;;;;43.13;14.65;100849.22;5115031;28;19912;-75
2023/07/08 09:03:15;;;;;;;1.75;1.65;;;;;;;42.77;15.70;100851.31;5116633;28;20028;-76
2023/07/08 09:05:45;;;;;;;3.53;2.20;;;;;;;42.79;15.79;100836.34;5098437;28;20031;-79
2023/07/08 09:08:34;;;;;;;2.42;1.70;;;;;;;42.86;14.59;100844.03;5098138;28;20120;-75
2023/07/08 09:11:08;;;;;;;4.07;1.98;;;;;;;42.75;14.97;100839.25;5115852;28;20055;-74
2023/07/08 09:13:36;;;;;;;3.22;2.05;;;;;;;42.65;15.30;100845.03;5115261;28;20157;-75
2023/07/08 09:16:06;;;;;;;2.22;1.80;;;;;;;42.54;14.88;100837.94;5114926;28;20051;-75
2023/07/08 09:19:05;;;;;;;2.38;1.90;;;;;;;42.16;14.95;100830.91;5116006;28;20024;-74
2023/07/08 09:21:55;;;;;;;4.20;1.80;;;;;;;41.75;14.79;100823.72;5115919;28;20076;-74
2023/07/08 09:24:52;;;;;;;1.60;1.50;;;;;;;41.66;17.01;100827.97;5113003;28;20409;-75
2023/07/08 09:27:18;;;;;;;1.85;1.67;;;;;;;41.85;16.66;100838.25;5114412;28;20031;-75
2023/07/08 09:29:46;;;;;;;5.78;2.00;;;;;;;41.78;16.01;100833.53;5113686;28;20130;-75
2023/07/08 09:32:15;;;;;;;3.08;1.75;;;;;;;41.61;14.93;100835.34;5114411;28;20043;-75
2023/07/08 09:34:53;;;;;;;3.60;1.80;;;;;;;40.95;15.33;100828.72;5114055;28;20027;-74
2023/07/08 09:37:35;;;;;;;3.58;1.90;;;;;;;40.11;16.12;100832.53;5115322;28;20747;-75
2023/07/08 09:40:14;;;;;;;4.38;2.30;;;;;;;39.45;16.06;100825.56;5114246;28;20022;-75
2023/07/08 09:42:42;;;;;;;7.13;2.15;;;;;;;39.30;16.85;100821.25;5114720;28;20023;-75
2023/07/08 09:45:22;;;;;;;2.30;2.10;;;;;;;39.22;15.23;100817.94;5097126;28;20422;-74
2023/07/08 09:47:56;;;;;;;4.20;2.20;;;;;;;38.62;16.51;100812.44;5113700;28;20030;-75
2023/07/08 09:50:28;;;;;;;5.80;1.90;;;;;;;38.27;17.24;100810.97;5097320;28;20092;-74
2023/07/08 09:53:00;;;;;;;2.92;2.10;;;;;;;37.94;18.11;100810.97;5114520;28;20048;-74
2023/07/08 09:55:28;;;;;;;5.07;1.92;;;;;;;37.60;18.07;100816.13;5115259;28;20027;-75
2023/07/08 09:57:56;;;;;;;3.85;2.13;;;;;;;37.32;18.74;100818.56;5115167;28;20106;-75
2023/07/08 10:00:42;;;;;;;5.38;2.42;;;;;;;36.91;17.96;100818.03;5113716;28;20023;-74
2023/07/08 10:03:14;;;;;;;4.75;2.03;;;;;;;36.59;18.53;100808.97;5129271;27;20028;-75
2023/07/08 10:05:42;;;;;;;3.15;1.80;;;;;;;36.48;19.00;100815.88;5114974;28;20111;-75
2023/07/08 10:08:23;;;;;;;2.58;2.00;;;;;;;36.26;18.97;100814.69;5115026;27;20478;-75
2023/07/08 10:11:03;;;;;;;2.80;2.10;;;;;;;35.80;18.76;100816.72;5114723;28;20047;-75
2023/07/08 10:13:39;;;;;;;3.05;2.17;;;;;;;35.25;18.61;100824.84;5130846;27;20024;-75
2023/07/08 10:16:13;;;;;;;5.20;2.03;;;;;;;34.83;19.45;100825.38;5106946;28;20028;-76
2023/07/08 10:18:38;;;;;;;4.88;2.40;;;;;;;34.55;19.81;100821.50;5096781;28;20035;-76
2023/07/08 10:21:22;;;;;;;3.75;2.10;;;;;;;34.40;20.65;100819.13;5095578;28;20032;-76
2023/07/08 10:24:11;;;;;;;3.22;2.63;;;;;;;34.30;21.15;100811.16;5116444;28;20372;-75
2023/07/08 10:26:38;;;;;;;1.77;1.67;;;;;;;34.14;21.15;100819.09;5114967;28;20487;-75
2023/07/08 10:29:25;;;;;;;2.80;2.20;;;;;;;33.87;21.24;100813.69;5097586;28;20019;-75
2023/07/08 10:32:01;;;;;;;2.90;2.20;;;;;;;33.43;21.77;100817.59;5114999;28;20023;-76
2023/07/08 10:34:46;;;;;;;2.88;2.00;;;;;;;33.05;22.18;100807.00;5114854;28;20031;-73
2023/07/08 10:37:36;;;;;;;1.95;1.80;;;;;;;32.67;22.59;100814.13;5115970;28;20023;-74
2023/07/08 10:40:19;;;;;;;3.65;1.83;;;;;;;32.36;22.54;100806.78;5115166;28;20045;-76
2023/07/08 10:43:07;;;;;;;3.22;2.17;;;;;;;32.16;23.09;100809.09;5114997;28;20024;-75
2023/07/08 10:45:44;;;;;;;3.95;2.20;;;;;;;31.90;23.35;100810.25;5115386;28;20069;-73
2023/07/08 10:48:36;;;;;;;4.05;2.25;;;;;;;31.65;23.35;100819.59;5113530;28;20039;-74
2023/07/08 10:51:07;;;;;;;2.45;2.00;;;;;;;31.47;23.32;100824.19;5114835;28;20019;-75
2023/07/08 10:53:37;;;;;;;2.72;2.30;;;;;;;31.24;23.13;100819.63;5115582;28;20032;-72
2023/07/08 10:56:43;;;;;;;5.43;2.13;;;;;;;31.02;23.59;100812.06;5103996;28;20067;-73
2023/07/08 10:59:20;;;;;;;3.70;1.85;;;;;;;30.84;24.71;100799.69;5092697;28;20035;-72
2023/07/08 11:02:12;;;;;;;4.93;2.17;;;;;;;30.72;24.89;100806.88;5093116;28;20028;-73
2023/07/08 11:05:01;;;;;;;4.32;2.58;;;;;;;30.70;24.44;100797.88;5093932;28;20090;-75
2023/07/08 11:07:52;;;;;;;3.17;2.33;;;;;;;30.61;25.06;100799.44;5084112;28;20032;-77
2023/07/08 11:10:19;;;;;;;2.20;2.00;;;;;;;30.44;25.18;100797.44;5092222;28;20036;-76
2023/07/08 11:12:54;;;;;;;2.83;1.75;;;;;;;30.31;24.92;100800.88;5092377;28;20088;-75
2023/07/08 11:15:23;;;;;;;3.60;1.88;;;;;;;30.19;25.25;100808.00;5092291;28;20469;-75
2023/07/08 11:18:30;;;;;;;2.83;2.15;;;;;;;30.04;25.50;100803.16;5092377;28;20028;-80
2023/07/08 11:21:00;;;;;;;3.00;2.38;;;;;;;29.90;25.79;100811.69;5094248;28;20097;-81
2023/07/08 11:23:56;;;;;;;2.80;2.20;;;;;;;29.71;26.32;100803.59;5093524;28;20024;-78
2023/07/08 11:26:42;;;;;;;3.92;2.03;;;;;;;29.52;25.99;100791.75;5094099;28;20028;-76
2023/07/08 11:29:24;;;;;;;3.20;1.92;;;;;;;29.44;27.12;100794.03;5076707;28;20024;-77
2023/07/08 11:31:52;;;;;;;3.78;1.80;;;;;;;29.51;27.66;100804.16;5094233;28;20066;-77
2023/07/08 11:34:38;;;;;;;3.60;2.20;;;;;;;29.54;27.17;100794.06;5096264;28;20091;-75